createdAt,value
2018-05-14T00:02:27.927Z,50.80
2018-05-14T00:04:55.117Z,50.90
2018-05-14T00:07:22.377Z,51.50
2018-05-14T00:09:49.710Z,51.00
2018-05-14T00:12:16.903Z,51.60
2018-05-14T00:14:44.905Z,52.00
2018-05-14T00:17:12.131Z,52.00
2018-05-14T00:19:40.085Z,52.30
2018-05-14T00:22:07.295Z,52.30
2018-05-14T00:24:34.549Z,52.40
2018-05-14T00:27:01.756Z,52.40
2018-05-14T00:29:29.711Z,52.90
2018-05-14T00:31:57.676Z,53.00
2018-05-14T00:34:25.633Z,53.20
2018-05-14T00:36:52.870Z,53.20
2018-05-14T00:39:20.104Z,53.20
2018-05-14T00:41:47.291Z,53.30
2018-05-14T00:44:14.526Z,53.40
2018-05-14T00:46:41.779Z,53.80
2018-05-14T00:49:09.005Z,53.40
2018-05-14T00:51:36.975Z,53.30
2018-05-14T00:54:04.184Z,53.30
2018-05-14T00:56:31.423Z,53.30
2018-05-14T00:58:59.404Z,53.20
2018-05-14T01:01:26.611Z,53.20
2018-05-14T01:03:53.788Z,53.10
2018-05-14T01:06:21.797Z,53.10
2018-05-14T01:08:49.024Z,53.10
2018-05-14T01:11:16.233Z,53.00
2018-05-14T01:13:43.496Z,53.00
2018-05-14T01:16:10.748Z,52.90
2018-05-14T01:18:37.933Z,52.90
2018-05-14T01:21:05.144Z,53.00
2018-05-14T01:23:32.366Z,52.40
2018-05-14T01:25:59.572Z,51.90
2018-05-14T01:28:27.561Z,51.00
2018-05-14T01:30:54.772Z,51.00
2018-05-14T01:33:21.990Z,50.90
2018-05-14T01:35:49.211Z,50.90
2018-05-14T01:38:16.519Z,50.90
2018-05-14T01:40:43.735Z,50.90
2018-05-14T01:43:10.967Z,50.80
2018-05-14T01:45:38.152Z,50.80
2018-05-14T01:48:05.383Z,51.10
2018-05-14T01:50:32.588Z,50.30
2018-05-14T01:53:00.611Z,49.80
2018-05-14T01:55:27.836Z,49.80
2018-05-14T01:57:55.102Z,49.80
2018-05-14T02:00:22.307Z,50.00
2018-05-14T02:02:50.287Z,50.30
2018-05-14T02:05:18.241Z,50.40
2018-05-14T02:07:46.215Z,50.50
2018-05-14T02:10:14.215Z,50.50
2018-05-14T02:12:41.431Z,50.50
2018-05-14T02:15:09.388Z,50.50
2018-05-14T02:17:36.604Z,50.50
2018-05-14T02:20:03.848Z,50.50
2018-05-14T02:22:31.069Z,50.50
2018-05-14T02:24:58.299Z,50.50
2018-05-14T02:27:26.396Z,50.40
2018-05-14T02:29:53.608Z,50.40
2018-05-14T02:32:21.599Z,50.30
2018-05-14T02:34:48.836Z,50.30
2018-05-14T02:37:16.800Z,50.40
2018-05-14T02:39:44.787Z,50.50
2018-05-14T02:42:12.777Z,50.60
2018-05-14T02:44:39.994Z,50.60
2018-05-14T02:47:07.963Z,50.80
2018-05-14T02:49:35.932Z,50.80
2018-05-14T02:52:03.909Z,50.90
2018-05-14T02:54:31.151Z,50.80
2018-05-14T02:56:59.169Z,51.00
2018-05-14T02:59:26.399Z,51.00
2018-05-14T03:01:53.606Z,51.00
2018-05-14T03:04:21.584Z,51.00
2018-05-14T03:06:49.597Z,51.10
2018-05-14T03:09:16.817Z,51.10
2018-05-14T03:11:44.812Z,51.30
2018-05-14T03:14:12.030Z,51.30
2018-05-14T03:16:39.981Z,51.40
2018-05-14T03:19:07.190Z,51.30
2018-05-14T03:21:34.400Z,51.40
2018-05-14T03:24:02.380Z,51.40
2018-05-14T03:26:29.609Z,51.40
2018-05-14T03:28:57.584Z,51.40
2018-05-14T03:31:25.580Z,51.40
2018-05-14T03:33:52.818Z,51.40
2018-05-14T03:36:20.023Z,51.40
2018-05-14T03:38:47.248Z,51.40
2018-05-14T03:41:14.454Z,51.40
2018-05-14T03:43:42.427Z,51.60
2018-05-14T03:46:10.401Z,51.50
2018-05-14T03:48:37.619Z,51.60
2018-05-14T03:51:04.831Z,51.60
2018-05-14T03:53:32.036Z,51.70
2018-05-14T03:56:00.032Z,51.70
2018-05-14T03:58:33.062Z,51.70
2018-05-14T04:01:06.192Z,51.80
2018-05-14T04:03:39.293Z,51.80
2018-05-14T04:06:12.455Z,51.80
2018-05-14T04:08:40.428Z,51.80
2018-05-14T04:11:08.390Z,51.90
2018-05-14T04:13:36.380Z,52.00
2018-05-14T04:16:03.573Z,51.90
2018-05-14T04:18:30.798Z,52.00
2018-05-14T04:20:58.024Z,52.00
2018-05-14T04:23:25.268Z,52.20
2018-05-14T04:25:53.243Z,52.20
2018-05-14T04:28:20.440Z,52.20
2018-05-14T04:30:47.660Z,52.30
2018-05-14T04:33:14.908Z,52.40
2018-05-14T04:35:42.137Z,52.60
2018-05-14T04:38:10.111Z,52.60
2018-05-14T04:40:37.386Z,52.60
2018-05-14T04:43:04.608Z,52.70
2018-05-14T04:45:32.575Z,53.00
2018-05-14T04:48:00.579Z,53.30
2018-05-14T04:50:28.532Z,53.50
2018-05-14T04:52:55.782Z,53.50
2018-05-14T04:55:23.013Z,53.90
2018-05-14T04:57:50.980Z,53.90
2018-05-14T05:00:18.968Z,53.90
2018-05-14T05:02:46.176Z,53.90
2018-05-14T05:05:13.370Z,53.90
2018-05-14T05:07:40.563Z,53.80
2018-05-14T05:10:07.859Z,54.10
2018-05-14T05:12:35.068Z,54.10
2018-05-14T05:15:02.257Z,54.00
2018-05-14T05:17:30.250Z,54.00
2018-05-14T05:19:57.468Z,54.00
2018-05-14T05:22:25.479Z,53.90
2018-05-14T05:24:52.664Z,53.90
2018-05-14T05:27:19.927Z,53.80
2018-05-14T05:29:47.922Z,53.80
2018-05-14T05:32:15.109Z,53.80
2018-05-14T05:34:42.325Z,53.90
2018-05-14T05:37:09.555Z,54.00
2018-05-14T05:39:37.550Z,53.80
2018-05-14T05:42:04.787Z,53.80
2018-05-14T05:44:32.073Z,53.80
2018-05-14T05:46:59.291Z,53.80
2018-05-14T05:49:26.520Z,53.80
2018-05-14T05:51:54.478Z,53.90
2018-05-14T05:54:21.665Z,53.90
2018-05-14T05:56:48.898Z,54.10
2018-05-14T05:59:16.871Z,54.10
2018-05-14T06:01:44.107Z,53.90
2018-05-14T06:04:12.069Z,53.40
2018-05-14T06:06:40.037Z,52.70
2018-05-14T06:09:08.030Z,51.80
2018-05-14T06:11:35.264Z,51.80
2018-05-14T06:14:03.262Z,50.00
2018-05-14T06:16:30.475Z,50.00
2018-05-14T06:18:58.554Z,47.80
2018-05-14T06:21:26.558Z,47.10
2018-05-14T06:23:57.718Z,47.10
2018-05-14T06:26:25.069Z,46.40
2018-05-14T06:28:52.354Z,46.20
2018-05-14T06:31:20.428Z,45.90
2018-05-14T06:33:48.581Z,45.90
2018-05-14T06:36:15.949Z,45.90
2018-05-14T06:38:44.079Z,46.10
2018-05-14T06:41:11.420Z,46.10
2018-05-14T06:43:38.716Z,46.20
2018-05-14T06:46:05.937Z,46.10
2018-05-14T06:48:33.249Z,46.00
2018-05-14T06:51:00.587Z,45.80
2018-05-14T06:53:28.687Z,45.60
2018-05-14T06:55:56.001Z,45.50
2018-05-14T06:58:24.082Z,45.50
2018-05-14T07:00:54.222Z,45.50
2018-05-14T07:03:21.620Z,45.30
2018-05-14T07:05:49.110Z,45.60
2018-05-14T07:08:17.306Z,45.20
2018-05-14T07:10:44.731Z,45.20
2018-05-14T07:13:12.941Z,45.50
2018-05-14T07:15:40.399Z,45.50
2018-05-14T07:18:07.870Z,45.80
2018-05-14T07:20:35.354Z,45.40
2018-05-14T07:23:02.870Z,45.40
2018-05-14T07:25:31.092Z,45.20
2018-05-14T07:27:58.601Z,45.20
2018-05-14T07:30:26.090Z,45.30
2018-05-14T07:32:53.571Z,45.40
2018-05-14T07:35:21.849Z,45.10
2018-05-14T07:37:50.209Z,44.70
2018-05-14T07:40:18.368Z,44.80
2018-05-14T07:42:45.841Z,44.70
2018-05-14T07:45:13.346Z,44.80
2018-05-14T07:47:40.810Z,44.50
2018-05-14T07:50:08.357Z,44.50
2018-05-14T07:52:35.870Z,44.50
2018-05-14T07:55:03.412Z,44.10
2018-05-14T07:57:30.893Z,43.80
2018-05-14T07:59:59.166Z,42.80
2018-05-14T08:02:26.665Z,42.80
2018-05-14T08:04:54.891Z,42.60
2018-05-14T08:07:22.363Z,42.60
2018-05-14T08:09:50.619Z,42.90
2018-05-14T08:12:18.115Z,42.90
2018-05-14T08:14:45.583Z,42.50
2018-05-14T08:17:13.075Z,42.50
2018-05-14T08:19:40.606Z,42.30
2018-05-14T08:22:08.153Z,42.30
2018-05-14T08:24:35.665Z,42.30
2018-05-14T08:27:03.224Z,42.30
2018-05-14T08:29:30.710Z,42.40
2018-05-14T08:31:58.974Z,42.30
2018-05-14T08:34:27.317Z,42.10
2018-05-14T08:36:54.857Z,42.10
2018-05-14T08:39:22.352Z,41.80
2018-05-14T08:41:49.860Z,41.60
2018-05-14T08:44:17.409Z,41.30
2018-05-14T08:46:44.893Z,40.90
2018-05-14T08:49:12.395Z,41.00
2018-05-14T08:51:40.701Z,41.80
2018-05-14T08:54:08.283Z,41.10
2018-05-14T08:56:35.755Z,41.20
2018-05-14T08:59:03.256Z,41.50
2018-05-14T09:01:30.790Z,41.90
2018-05-14T09:03:59.049Z,42.50
2018-05-14T09:06:26.587Z,42.50
2018-05-14T09:08:54.043Z,42.50
2018-05-14T09:11:21.577Z,42.50
2018-05-14T09:13:49.081Z,42.70
2018-05-14T09:16:16.633Z,42.60
2018-05-14T09:18:44.118Z,42.40
2018-05-14T09:21:12.400Z,42.40
2018-05-14T09:23:40.651Z,42.60
2018-05-14T09:26:08.147Z,42.60
2018-05-14T09:28:35.667Z,42.60
2018-05-14T09:31:03.990Z,42.70
2018-05-14T09:33:32.310Z,42.80
2018-05-14T09:35:59.813Z,42.80
2018-05-14T09:38:27.294Z,42.80
2018-05-14T09:40:54.791Z,42.80
2018-05-14T09:43:22.341Z,42.90
2018-05-14T09:45:49.880Z,42.80
2018-05-14T09:48:17.403Z,42.80
2018-05-14T09:50:44.903Z,43.00
2018-05-14T09:53:12.457Z,43.10
2018-05-14T09:55:39.961Z,43.00
2018-05-14T09:58:07.480Z,42.90
2018-05-14T10:00:34.954Z,43.10
2018-05-14T10:03:03.331Z,43.50
2018-05-14T10:05:31.652Z,43.40
2018-05-14T10:07:59.154Z,43.30
2018-05-14T10:10:26.708Z,43.30
2018-05-14T10:12:54.391Z,43.30
2018-05-14T10:15:21.829Z,42.80
2018-05-14T10:17:49.323Z,42.50
2018-05-14T10:20:16.837Z,42.60
2018-05-14T10:22:44.361Z,42.60
2018-05-14T10:25:11.830Z,42.70
2018-05-14T10:27:39.336Z,42.60
2018-05-14T10:30:06.909Z,42.50
2018-05-14T10:32:34.446Z,42.50
2018-05-14T10:35:02.733Z,42.70
2018-05-14T10:37:30.989Z,42.50
2018-05-14T10:39:59.285Z,42.20
2018-05-14T10:42:26.763Z,42.20
2018-05-14T10:44:54.345Z,42.20
2018-05-14T10:47:21.854Z,42.30
2018-05-14T10:49:50.120Z,42.30
2018-05-14T10:52:17.667Z,42.30
2018-05-14T10:54:45.144Z,42.30
2018-05-14T10:57:13.379Z,42.20
2018-05-14T10:59:40.890Z,42.20
2018-05-14T11:02:08.432Z,41.90
2018-05-14T11:04:36.648Z,41.50
2018-05-14T11:07:04.144Z,41.50
2018-05-14T11:09:32.777Z,41.20
2018-05-14T11:12:00.271Z,41.00
2018-05-14T11:14:27.754Z,41.10
2018-05-14T11:16:56.008Z,40.50
2018-05-14T11:19:23.529Z,40.40
2018-05-14T11:21:51.074Z,39.20
2018-05-14T11:24:18.604Z,39.50
2018-05-14T11:26:46.871Z,38.50
2018-05-14T11:29:15.182Z,38.30
2018-05-14T11:31:42.644Z,38.20
2018-05-14T11:34:10.095Z,38.00
2018-05-14T11:36:37.669Z,38.50
2018-05-14T11:39:05.299Z,38.60
2018-05-14T11:41:32.799Z,38.60
2018-05-14T11:44:00.309Z,38.60
2018-05-14T11:46:27.806Z,38.60
2018-05-14T11:48:55.317Z,38.30
2018-05-14T11:51:22.796Z,38.50
2018-05-14T11:53:50.348Z,38.70
2018-05-14T11:56:17.863Z,39.00
2018-05-14T11:58:45.411Z,39.70
2018-05-14T12:01:12.927Z,39.20
2018-05-14T12:03:40.431Z,39.30
2018-05-14T12:06:07.901Z,39.30
2018-05-14T12:08:36.147Z,39.50
2018-05-14T12:11:03.634Z,39.40
2018-05-14T12:13:31.930Z,39.00
2018-05-14T12:15:59.514Z,38.90
2018-05-14T12:18:26.974Z,39.00
2018-05-14T12:20:54.462Z,39.30
2018-05-14T12:23:21.955Z,39.50
2018-05-14T12:25:49.426Z,39.20
2018-05-14T12:28:16.949Z,38.60
2018-05-14T12:30:45.232Z,39.30
2018-05-14T12:33:13.465Z,39.60
2018-05-14T12:35:40.954Z,39.50
2018-05-14T12:38:09.242Z,39.70
2018-05-14T12:40:37.505Z,38.60
2018-05-14T12:43:05.805Z,38.60
2018-05-14T12:45:33.302Z,38.60
2018-05-14T12:48:00.805Z,38.60
2018-05-14T12:50:29.065Z,38.90
2018-05-14T12:52:57.271Z,38.80
2018-05-14T12:55:24.687Z,38.80
2018-05-14T12:57:52.111Z,39.10
2018-05-14T13:00:20.354Z,39.70
2018-05-14T13:02:47.761Z,39.70
2018-05-14T13:05:15.219Z,39.80
2018-05-14T13:07:42.659Z,40.30
2018-05-14T13:10:10.072Z,40.50
2018-05-14T13:12:37.548Z,40.50
2018-05-14T13:15:05.074Z,40.40
2018-05-14T13:17:33.282Z,40.60
2018-05-14T13:20:01.547Z,40.60
2018-05-14T13:22:29.036Z,40.60
2018-05-14T13:24:56.516Z,40.80
2018-05-14T13:27:23.955Z,40.70
2018-05-14T13:29:51.536Z,40.60
2018-05-14T13:32:19.771Z,39.30
2018-05-14T13:34:47.253Z,39.30
2018-05-14T13:37:14.727Z,39.10
2018-05-14T13:39:42.936Z,39.10
2018-05-14T13:42:11.257Z,38.70
2018-05-14T13:44:38.835Z,38.60
2018-05-14T13:47:06.302Z,38.40
2018-05-14T13:49:34.493Z,38.60
2018-05-14T13:52:01.934Z,38.60
2018-05-14T13:54:29.461Z,38.60
2018-05-14T13:56:57.859Z,38.90
2018-05-14T13:59:26.068Z,41.10
2018-05-14T14:01:53.515Z,41.10
2018-05-14T14:04:20.994Z,40.70
2018-05-14T14:06:48.395Z,40.80
2018-05-14T14:09:16.634Z,42.80
2018-05-14T14:11:44.128Z,42.80
2018-05-14T14:14:12.351Z,41.00
2018-05-14T14:16:39.796Z,40.90
2018-05-14T14:19:07.224Z,39.60
2018-05-14T14:21:35.486Z,38.60
2018-05-14T14:24:03.308Z,38.40
2018-05-14T14:26:31.275Z,38.80
2018-05-14T14:28:58.719Z,38.80
2018-05-14T14:31:26.311Z,39.00
2018-05-14T14:33:53.790Z,39.10
2018-05-14T14:36:22.194Z,39.40
2018-05-14T14:38:49.572Z,39.30
2018-05-14T14:41:17.004Z,39.60
2018-05-14T14:43:44.474Z,39.80
2018-05-14T14:46:11.914Z,39.60
2018-05-14T14:48:39.357Z,39.10
2018-05-14T14:51:06.824Z,39.00
2018-05-14T14:53:34.323Z,38.60
2018-05-14T14:56:01.767Z,38.50
2018-05-14T14:58:29.197Z,38.30
2018-05-14T15:00:56.584Z,38.40
2018-05-14T15:03:23.946Z,38.10
2018-05-14T15:05:52.049Z,37.80
2018-05-14T15:08:20.193Z,37.90
2018-05-14T15:10:47.553Z,37.90
2018-05-14T15:13:15.009Z,38.10
2018-05-14T15:15:42.361Z,38.00
2018-05-14T15:18:09.766Z,38.30
2018-05-14T15:20:37.092Z,38.40
2018-05-14T15:23:04.442Z,38.30
2018-05-14T15:25:31.874Z,38.20
2018-05-14T15:27:59.201Z,38.40
2018-05-14T15:30:26.529Z,38.40
2018-05-14T15:32:53.857Z,38.20
2018-05-14T15:35:21.984Z,38.10
2018-05-14T15:37:49.348Z,38.10
2018-05-14T15:40:16.719Z,38.20
2018-05-14T15:42:44.105Z,37.40
2018-05-14T15:45:11.436Z,36.80
2018-05-14T15:47:38.839Z,36.70
2018-05-14T15:50:06.144Z,36.60
2018-05-14T15:52:33.562Z,36.80
2018-05-14T15:55:00.893Z,37.20
2018-05-14T15:57:28.199Z,37.30
2018-05-14T15:59:56.294Z,37.50
2018-05-14T16:02:24.418Z,37.70
2018-05-14T16:04:51.761Z,37.70
2018-05-14T16:07:19.126Z,37.30
2018-05-14T16:09:46.477Z,37.50
2018-05-14T16:12:13.833Z,37.40
2018-05-14T16:14:41.431Z,37.10
2018-05-14T16:17:09.525Z,36.90
2018-05-14T16:19:36.842Z,36.90
2018-05-14T16:22:04.308Z,37.70
2018-05-14T16:24:32.579Z,38.30
2018-05-14T16:27:00.746Z,38.60
2018-05-14T16:29:28.110Z,38.60
2018-05-14T16:31:56.238Z,39.30
2018-05-14T16:34:23.594Z,39.20
2018-05-14T16:36:50.954Z,39.20
2018-05-14T16:39:18.237Z,39.40
2018-05-14T16:41:46.318Z,39.20
2018-05-14T16:44:14.374Z,39.20
2018-05-14T16:46:43.348Z,38.90
2018-05-14T16:51:44.316Z,38.60
2018-05-14T16:54:12.473Z,39.40
2018-05-14T16:56:39.819Z,39.30
2018-05-14T16:59:07.149Z,39.40
2018-05-14T17:01:34.484Z,39.50
2018-05-14T17:04:01.906Z,39.70
2018-05-14T17:06:29.209Z,39.70
2018-05-14T17:08:56.585Z,39.80
2018-05-14T17:11:23.897Z,39.80
2018-05-14T17:13:51.225Z,39.70
2018-05-14T17:16:19.373Z,39.90
2018-05-14T17:18:46.720Z,39.80
2018-05-14T17:21:14.054Z,40.00
2018-05-14T17:23:42.154Z,39.30
2018-05-14T17:26:09.480Z,39.20
2018-05-14T17:28:36.808Z,38.90
2018-05-14T17:31:04.151Z,38.70
2018-05-14T17:33:31.444Z,38.90
2018-05-14T17:35:58.779Z,38.60
2018-05-14T17:38:26.163Z,38.70
2018-05-14T17:40:53.478Z,38.70
2018-05-14T17:43:20.816Z,38.70
2018-05-14T17:45:48.147Z,38.80
2018-05-14T17:48:16.244Z,39.50
2018-05-14T17:50:43.540Z,39.40
2018-05-14T17:53:10.891Z,39.50
2018-05-14T17:55:38.228Z,39.50
2018-05-14T17:58:06.344Z,39.60
2018-05-14T18:00:34.472Z,39.70
2018-05-14T18:03:01.779Z,39.70
2018-05-14T18:05:29.865Z,39.90
2018-05-14T18:07:57.194Z,39.90
2018-05-14T18:10:25.333Z,40.00
2018-05-14T18:12:52.663Z,39.90
2018-05-14T18:15:20.012Z,40.00
2018-05-14T18:17:47.427Z,40.10
2018-05-14T18:20:20.521Z,40.30
2018-05-14T18:22:48.585Z,40.20
2018-05-14T18:25:22.414Z,39.90
2018-05-14T18:27:55.443Z,39.90
2018-05-14T18:30:28.777Z,39.80
2018-05-14T18:33:02.746Z,40.00
2018-05-14T18:35:35.812Z,39.90
2018-05-14T18:38:03.113Z,40.00
2018-05-14T18:40:31.224Z,40.70
2018-05-14T18:42:58.573Z,40.10
2018-05-14T18:45:25.918Z,40.20
2018-05-14T18:47:53.216Z,40.40
2018-05-14T18:50:20.501Z,40.40
2018-05-14T18:52:48.625Z,40.50
2018-05-14T18:55:15.969Z,40.50
2018-05-14T18:57:43.316Z,40.60
2018-05-14T19:00:10.628Z,40.70
2018-05-14T19:02:38.761Z,40.50
2018-05-14T19:05:06.101Z,40.50
2018-05-14T19:07:33.440Z,40.60
2018-05-14T19:10:00.806Z,40.80
2018-05-14T19:12:28.208Z,40.70
2018-05-14T19:15:01.196Z,40.30
2018-05-14T19:17:35.105Z,39.40
2018-05-14T19:20:03.206Z,38.00
2018-05-14T19:22:36.876Z,38.00
2018-05-14T19:25:05.037Z,36.60
2018-05-14T19:27:32.465Z,36.50
2018-05-14T19:30:00.636Z,35.70
2018-05-14T19:32:27.980Z,35.30
2018-05-14T19:35:01.003Z,35.30
2018-05-14T19:37:28.366Z,35.00
2018-05-14T19:40:01.323Z,35.20
2018-05-14T19:42:28.833Z,35.30
2018-05-14T19:44:56.193Z,35.70
2018-05-14T19:47:23.556Z,36.10
2018-05-14T19:49:51.055Z,36.40
2018-05-14T19:52:18.752Z,36.60
2018-05-14T19:54:46.888Z,37.50
2018-05-14T19:57:14.215Z,37.40
2018-05-14T19:59:41.573Z,37.80
2018-05-14T20:02:08.920Z,38.00
2018-05-14T20:04:36.257Z,38.30
2018-05-14T20:07:03.664Z,38.50
2018-05-14T20:09:31.039Z,38.70
2018-05-14T20:11:59.165Z,38.90
2018-05-14T20:14:27.302Z,39.10
2018-05-14T20:16:54.660Z,39.10
2018-05-14T20:19:22.032Z,39.30
2018-05-14T20:21:49.401Z,39.60
2018-05-14T20:24:16.689Z,39.80
2018-05-14T20:26:44.776Z,40.10
2018-05-14T20:29:12.117Z,40.10
2018-05-14T20:31:40.287Z,40.30
2018-05-14T20:34:07.624Z,40.20
2018-05-14T20:36:34.961Z,40.30
2018-05-14T20:39:03.223Z,40.30
2018-05-14T20:41:30.535Z,40.40
2018-05-14T20:43:57.812Z,40.40
2018-05-14T20:46:25.126Z,40.30
2018-05-14T20:48:53.907Z,40.20
2018-05-14T20:51:21.965Z,40.10
2018-05-14T20:53:49.316Z,40.10
2018-05-14T20:56:17.496Z,40.00
2018-05-14T20:58:44.825Z,39.90
2018-05-14T21:01:12.171Z,39.90
2018-05-14T21:03:39.537Z,39.90
2018-05-14T21:06:06.928Z,39.80
2018-05-14T21:08:35.048Z,39.90
2018-05-14T21:11:02.329Z,39.90
2018-05-14T21:13:29.649Z,40.00
2018-05-14T21:15:56.994Z,40.10
2018-05-14T21:18:24.372Z,40.10
2018-05-14T21:20:52.516Z,40.20
2018-05-14T21:23:19.837Z,40.10
2018-05-14T21:25:47.956Z,40.10
2018-05-14T21:28:15.279Z,40.10
2018-05-14T21:30:42.553Z,40.10
2018-05-14T21:33:09.913Z,40.00
2018-05-14T21:35:37.250Z,40.00
2018-05-14T21:38:04.538Z,40.10
2018-05-14T21:40:31.846Z,40.10
2018-05-14T21:42:59.169Z,40.10
2018-05-14T21:45:27.251Z,40.30
2018-05-14T21:47:54.567Z,40.20
2018-05-14T21:50:23.438Z,40.20
2018-05-14T21:52:51.558Z,40.20
2018-05-14T21:55:20.352Z,40.00
2018-05-14T21:57:49.143Z,40.00
2018-05-14T22:00:18.036Z,39.90
2018-05-14T22:02:46.088Z,39.80
2018-05-14T22:05:14.884Z,39.80
2018-05-14T22:07:43.008Z,39.80
2018-05-14T22:10:11.080Z,39.70
2018-05-14T22:12:39.149Z,39.60
2018-05-14T22:15:08.062Z,39.50
2018-05-14T22:17:36.931Z,39.40
2018-05-14T22:20:04.960Z,39.40
2018-05-14T22:22:33.032Z,39.30
2018-05-14T22:25:01.089Z,39.00
2018-05-14T22:27:29.210Z,39.10
2018-05-14T22:29:57.276Z,39.10
2018-05-14T22:32:25.352Z,38.90
2018-05-14T22:34:53.393Z,38.90
2018-05-14T22:37:21.423Z,39.00
2018-05-14T22:39:50.235Z,39.10
2018-05-14T22:42:18.263Z,39.10
2018-05-14T22:44:46.318Z,39.20
2018-05-14T22:47:14.392Z,39.20
2018-05-14T22:49:42.382Z,39.30
2018-05-14T22:52:10.336Z,39.40
2018-05-14T22:54:38.286Z,39.50
2018-05-14T22:57:05.688Z,39.50
2018-05-14T22:59:33.781Z,39.50
2018-05-14T23:02:01.116Z,39.50
2018-05-14T23:04:28.433Z,39.40
2018-05-14T23:06:55.868Z,39.40
2018-05-14T23:09:23.142Z,39.40
2018-05-14T23:11:50.442Z,39.30
2018-05-14T23:14:17.844Z,39.40
2018-05-14T23:16:45.153Z,39.30
2018-05-14T23:19:12.432Z,39.20
2018-05-14T23:21:39.764Z,39.00
2018-05-14T23:24:07.086Z,39.00
2018-05-14T23:26:35.186Z,39.20
2018-05-14T23:29:03.281Z,39.10
2018-05-14T23:31:30.605Z,39.00
2018-05-14T23:33:57.898Z,38.90
2018-05-14T23:36:25.172Z,38.90
2018-05-14T23:38:53.263Z,39.00
2018-05-14T23:41:20.607Z,39.00
2018-05-14T23:43:48.686Z,38.80
2018-05-14T23:46:15.983Z,38.80
2018-05-14T23:48:43.311Z,38.80
2018-05-14T23:51:10.642Z,38.80
2018-05-14T23:53:38.708Z,38.80
2018-05-14T23:56:06.808Z,38.80
2018-05-14T23:58:34.164Z,38.80
